Time;durP1;ratioP1;P1;durP2;ratioP2;P2;SDS_P1;SDS_P2;PMS_P1;PMS_P2;Temp;Humidity;BMP_temperature;BMP_pressure;BME280_temperature;BME280_humidity;BME280_pressure;Samples;Min_cycle;Max_cycle;Signal;HPM_P1;HPM_P2
2023/07/01 00:01:02;;;;;;;11.55;7.20;;;13.80;62.90;;;;;;5014775;28;20028;-73
2023/07/01 00:03:30;;;;;;;11.57;7.40;;;13.80;63.60;;;;;;4997356;28;20351;-73
2023/07/01 00:05:59;;;;;;;9.98;6.55;;;13.70;63.70;;;;;;5015008;28;20033;-73
2023/07/01 00:08:25;;;;;;;9.75;6.88;;;13.80;63.50;;;;;;5013622;28;20033;-73
2023/07/01 00:10:51;;;;;;;11.38;7.15;;;13.70;63.90;;;;;;5015197;28;20030;-73
2023/07/01 00:13:16;;;;;;;11.25;6.97;;;13.70;63.80;;;;;;4997522;28;20049;-72
2023/07/01 00:15:42;;;;;;;9.25;5.88;;;13.80;64.00;;;;;;5013188;28;20045;-73
2023/07/01 00:18:10;;;;;;;11.18;6.80;;;13.80;64.90;;;;;;5014285;28;20478;-74
2023/07/01 00:20:36;;;;;;;10.27;6.47;;;13.80;65.50;;;;;;5013164;28;20141;-73
2023/07/01 00:23:01;;;;;;;10.75;7.75;;;13.80;65.70;;;;;;5012922;28;20096;-73
2023/07/01 00:25:27;;;;;;;12.57;8.18;;;13.80;66.10;;;;;;4996890;28;20029;-74
2023/07/01 00:27:52;;;;;;;10.63;7.10;;;13.80;66.10;;;;;;5016286;28;20022;-73
2023/07/01 00:30:18;;;;;;;10.43;7.13;;;13.80;65.60;;;;;;5013158;28;20088;-72
2023/07/01 00:32:43;;;;;;;14.57;8.48;;;13.80;66.00;;;;;;4996822;28;20117;-73
2023/07/01 00:35:09;;;;;;;11.27;7.80;;;13.80;65.10;;;;;;5014552;28;20057;-73
2023/07/01 00:37:34;;;;;;;10.70;7.03;;;13.80;64.50;;;;;;5013202;28;20026;-73
2023/07/01 00:40:00;;;;;;;11.60;7.18;;;13.80;64.70;;;;;;5014315;28;20036;-73
2023/07/01 00:42:25;;;;;;;8.98;6.18;;;13.80;64.50;;;;;;5015368;28;20046;-73
2023/07/01 00:44:51;;;;;;;10.18;7.30;;;13.80;64.40;;;;;;5014758;28;20109;-73
2023/07/01 00:47:17;;;;;;;11.27;7.80;;;13.80;64.10;;;;;;5014324;28;20030;-73
2023/07/01 00:49:43;;;;;;;10.40;6.55;;;13.80;64.30;;;;;;5014242;28;20036;-73
2023/07/01 00:52:08;;;;;;;12.32;6.70;;;13.80;64.30;;;;;;5013509;28;20100;-73
2023/07/01 00:54:35;;;;;;;12.00;6.78;;;13.80;63.80;;;;;;5014343;28;20034;-73
2023/07/01 00:57:03;;;;;;;9.88;6.30;;;13.80;64.60;;;;;;5012223;28;20052;-73
2023/07/01 00:59:30;;;;;;;7.95;5.50;;;13.80;64.70;;;;;;5013500;28;20029;-73
2023/07/01 01:01:59;;;;;;;9.70;5.80;;;13.90;66.30;;;;;;5014959;28;20029;-73
2023/07/01 01:04:38;;;;;;;10.70;7.22;;;13.90;67.80;;;;;;5012750;28;20093;-73
2023/07/01 01:07:22;;;;;;;8.23;5.65;;;13.90;68.10;;;;;;5013196;28;20318;-73
2023/07/01 01:09:50;;;;;;;;;;;14.00;67.70;;;;;;5013780;28;20030;-73
2023/07/01 01:12:21;;;;;;;9.55;6.65;;;14.00;67.50;;;;;;5015928;28;19905;-73
2023/07/01 01:14:50;;;;;;;15.10;6.80;;;14.00;67.70;;;;;;5013527;28;20534;-74
2023/07/01 01:17:19;;;;;;;10.43;6.90;;;14.00;67.50;;;;;;5015704;28;20034;-73
2023/07/01 01:19:51;;;;;;;11.38;8.50;;;13.90;66.40;;;;;;5013301;28;20025;-74
2023/07/01 01:22:24;;;;;;;8.35;5.65;;;13.90;66.40;;;;;;5012783;28;20091;-74
2023/07/01 01:24:54;;;;;;;10.60;6.35;;;13.90;65.60;;;;;;5011897;28;20022;-74
2023/07/01 01:27:25;;;;;;;10.98;6.90;;;13.90;65.50;;;;;;5014652;28;20058;-74
2023/07/01 01:29:51;;;;;;;13.15;7.07;;;13.90;65.20;;;;;;4996443;28;20535;-74
2023/07/01 01:32:17;;;;;;;13.38;7.43;;;13.90;64.80;;;;;;5017559;28;20104;-73
2023/07/01 01:34:43;;;;;;;13.77;7.50;;;13.90;64.90;;;;;;5017638;28;20044;-74
2023/07/01 01:37:26;;;;;;;9.75;7.00;;;14.00;64.30;;;;;;5016722;28;20037;-74
2023/07/01 01:39:56;;;;;;;13.93;7.37;;;13.90;65.50;;;;;;4999248;28;20435;-74
2023/07/01 01:42:28;;;;;;;10.10;6.30;;;13.90;65.10;;;;;;5019153;28;20038;-74
2023/07/01 01:44:55;;;;;;;11.52;7.57;;;14.00;64.80;;;;;;5017367;28;20026;-73
2023/07/01 01:47:29;;;;;;;8.95;6.53;;;14.00;65.00;;;;;;5018182;28;20100;-73
2023/07/01 01:50:00;;;;;;;8.27;6.25;;;14.00;64.60;;;;;;5016554;28;20330;-73
2023/07/01 01:52:26;;;;;;;8.40;5.65;;;14.00;64.20;;;;;;4999645;28;20030;-73
2023/07/01 01:54:54;;;;;;;11.52;6.95;;;14.00;64.50;;;;;;5015868;28;20044;-74
2023/07/01 01:57:20;;;;;;;8.23;5.47;;;14.00;64.80;;;;;;5018013;28;20053;-74
2023/07/01 01:59:46;;;;;;;9.55;6.10;;;14.00;64.50;;;;;;5016695;28;20446;-73
2023/07/01 02:02:12;;;;;;;11.95;5.60;;;13.90;64.90;;;;;;5001097;28;20088;-73
2023/07/01 02:04:38;;;;;;;9.43;6.70;;;13.90;65.20;;;;;;5017301;28;20370;-73
2023/07/01 02:07:04;;;;;;;10.93;7.10;;;13.90;65.70;;;;;;5017612;28;20097;-72
2023/07/01 02:09:29;;;;;;;8.45;6.03;;;13.90;65.50;;;;;;5016260;28;20040;-73
2023/07/01 02:11:56;;;;;;;10.93;6.78;;;13.90;65.90;;;;;;4999711;28;20037;-73
2023/07/01 02:14:22;;;;;;;8.63;6.30;;;13.80;66.60;;;;;;5017400;28;20049;-73
2023/07/01 02:16:50;;;;;;;9.80;6.45;;;13.80;66.90;;;;;;5016672;28;20065;-73
2023/07/01 02:19:16;;;;;;;8.82;5.82;;;13.80;66.40;;;;;;5016615;28;20030;-74
2023/07/01 02:21:42;;;;;;;9.23;6.00;;;13.80;66.90;;;;;;5015840;28;20349;-74
2023/07/01 02:24:08;;;;;;;7.90;5.55;;;13.80;67.60;;;;;;5015731;28;20030;-73
2023/07/01 02:26:33;;;;;;;12.68;5.95;;;13.80;67.80;;;;;;5017727;28;20366;-73
2023/07/01 02:28:59;;;;;;;10.60;6.78;;;13.90;70.80;;;;;;5016339;28;20030;-73
2023/07/01 02:31:28;;;;;;;13.07;6.28;;;13.90;73.30;;;;;;5015178;28;20029;-73
2023/07/01 02:34:00;;;;;;;9.73;6.13;;;14.00;72.70;;;;;;5015205;28;20033;-74
2023/07/01 02:36:26;;;;;;;11.65;6.72;;;14.00;72.40;;;;;;5000380;28;20030;-73
2023/07/01 02:38:51;;;;;;;9.50;5.72;;;14.00;72.40;;;;;;5016803;28;20041;-73
2023/07/01 02:41:17;;;;;;;10.48;5.95;;;14.00;72.40;;;;;;5015505;28;20049;-73
2023/07/01 02:43:42;;;;;;;12.10;7.57;;;13.90;72.30;;;;;;5018109;28;20067;-73
2023/07/01 02:46:08;;;;;;;10.45;6.78;;;13.90;71.20;;;;;;5016306;28;20029;-73
2023/07/01 02:48:36;;;;;;;10.77;6.10;;;13.90;70.50;;;;;;5015757;28;20030;-73
2023/07/01 02:51:02;;;;;;;11.77;6.30;;;13.90;70.70;;;;;;5013961;28;20342;-73
2023/07/01 02:53:27;;;;;;;9.52;6.05;;;13.90;69.70;;;;;;4999719;28;20045;-73
2023/07/01 02:55:53;;;;;;;9.57;6.55;;;13.90;69.80;;;;;;5016042;28;20113;-73
2023/07/01 02:58:19;;;;;;;10.55;5.88;;;13.90;70.30;;;;;;5016315;28;20109;-73
2023/07/01 03:00:45;;;;;;;10.45;6.38;;;13.90;69.70;;;;;;5015902;28;20037;-73
2023/07/01 03:03:11;;;;;;;12.00;6.05;;;14.00;68.90;;;;;;5017747;28;20104;-73
2023/07/01 03:05:38;;;;;;;11.63;6.10;;;14.00;70.30;;;;;;5013760;28;20411;-72
2023/07/01 03:08:05;;;;;;;10.43;6.20;;;14.00;70.40;;;;;;5015085;28;20025;-73
2023/07/01 03:10:31;;;;;;;10.05;6.53;;;14.00;71.20;;;;;;5014435;28;20034;-73
2023/07/01 03:12:57;;;;;;;9.82;6.32;;;14.00;72.90;;;;;;5017142;28;20028;-72
2023/07/01 03:15:23;;;;;;;10.48;6.65;;;14.00;72.20;;;;;;5015339;28;20034;-73
2023/07/01 03:17:49;;;;;;;8.75;5.85;;;14.00;71.90;;;;;;5014821;28;20069;-73
2023/07/01 03:20:24;;;;;;;9.57;6.07;;;14.00;72.90;;;;;;5014792;28;20354;-73
2023/07/01 03:22:56;;;;;;;8.63;5.38;;;14.00;72.20;;;;;;5015425;28;20026;-73
2023/07/01 03:25:23;;;;;;;7.85;5.00;;;14.00;74.10;;;;;;5014271;28;20155;-73
2023/07/01 03:27:49;;;;;;;8.30;5.20;;;14.10;75.80;;;;;;4997658;28;20080;-73
2023/07/01 03:30:16;;;;;;;9.10;5.18;;;14.10;76.20;;;;;;5006368;28;20034;-73
2023/07/01 03:32:46;;;;;;;7.57;5.20;;;14.10;76.20;;;;;;5015613;28;20038;-73
2023/07/01 03:35:13;;;;;;;9.48;5.82;;;14.10;75.70;;;;;;5014864;28;20083;-73
2023/07/01 03:37:43;;;;;;;10.73;5.93;;;14.10;75.80;;;;;;5016710;28;20030;-73
2023/07/01 03:40:12;;;;;;;8.15;5.20;;;14.10;75.90;;;;;;5012782;28;20048;-74
2023/07/01 03:42:41;;;;;;;8.65;6.10;;;14.10;75.90;;;;;;5013788;28;20041;-72
2023/07/01 03:45:09;;;;;;;8.10;5.05;;;14.20;76.10;;;;;;5015148;28;20022;-73
2023/07/01 03:47:36;;;;;;;10.65;6.13;;;14.20;74.70;;;;;;5020671;28;20022;-73
2023/07/01 03:50:02;;;;;;;8.85;5.20;;;14.20;74.00;;;;;;5014798;28;20108;-72
2023/07/01 03:52:27;;;;;;;6.93;5.00;;;14.20;74.70;;;;;;5014063;28;20030;-72
2023/07/01 03:54:53;;;;;;;8.43;4.65;;;14.20;76.30;;;;;;5012869;28;20036;-73
2023/07/01 03:57:18;;;;;;;7.63;4.50;;;14.20;76.90;;;;;;4999325;28;20105;-73
2023/07/01 03:59:44;;;;;;;6.63;4.68;;;14.30;77.90;;;;;;5012898;28;20081;-73
2023/07/01 04:02:10;;;;;;;6.28;4.20;;;14.30;80.70;;;;;;5015003;28;20022;-73
2023/07/01 04:04:38;;;;;;;8.70;5.45;;;14.30;81.40;;;;;;5013955;28;20030;-72
2023/07/01 04:07:05;;;;;;;10.15;5.32;;;14.40;83.80;;;;;;4995743;28;20028;-73
2023/07/01 04:09:31;;;;;;;7.40;4.95;;;14.40;82.30;;;;;;5008686;28;20438;-73
2023/07/01 04:11:56;;;;;;;8.48;4.30;;;14.40;84.30;;;;;;5015520;28;20038;-72
2023/07/01 04:14:23;;;;;;;11.82;4.57;;;14.40;88.50;;;;;;5014395;28;20029;-73
2023/07/01 04:16:49;;;;;;;8.18;5.03;;;14.60;88.00;;;;;;5014702;28;20034;-73
2023/07/01 04:19:15;;;;;;;8.73;5.20;;;14.70;86.50;;;;;;5010989;28;20030;-74
2023/07/01 04:21:40;;;;;;;6.75;4.18;;;14.70;85.80;;;;;;5013122;28;20032;-75
2023/07/01 04:24:07;;;;;;;9.73;4.35;;;14.70;85.80;;;;;;5013387;28;20049;-73
2023/07/01 04:26:34;;;;;;;9.13;4.57;;;14.70;86.50;;;;;;5013947;28;20319;-72
2023/07/01 04:29:00;;;;;;;7.00;4.40;;;14.80;87.00;;;;;;5014512;28;20311;-73
2023/07/01 04:31:26;;;;;;;6.05;3.85;;;14.90;86.10;;;;;;4997269;28;20030;-73
2023/07/01 04:33:52;;;;;;;6.93;4.30;;;14.90;87.20;;;;;;5015269;28;20021;-73
2023/07/01 04:36:17;;;;;;;8.52;4.20;;;15.00;87.60;;;;;;5012836;28;20032;-73
2023/07/01 04:38:43;;;;;;;7.57;4.43;;;15.00;88.20;;;;;;5013985;28;20026;-73
2023/07/01 04:41:08;;;;;;;6.78;3.97;;;15.00;90.70;;;;;;5013897;28;20041;-75
2023/07/01 04:43:35;;;;;;;9.80;3.95;;;15.00;90.00;;;;;;5015105;28;20030;-73
2023/07/01 04:46:00;;;;;;;6.72;3.92;;;15.10;90.30;;;;;;5013301;28;20026;-73
2023/07/01 04:48:26;;;;;;;6.00;3.40;;;15.00;91.60;;;;;;5015274;28;20438;-74
2023/07/01 04:50:51;;;;;;;5.60;3.75;;;14.80;92.00;;;;;;5012986;28;20030;-73
2023/07/01 04:53:18;;;;;;;7.28;4.40;;;14.70;91.10;;;;;;5012318;28;20144;-73
2023/07/01 04:55:43;;;;;;;7.13;3.60;;;14.60;91.00;;;;;;4993343;28;20116;-73
2023/07/01 04:58:09;;;;;;;6.72;3.97;;;14.40;89.70;;;;;;5013862;28;20049;-74
2023/07/01 05:00:34;;;;;;;7.32;4.20;;;14.30;90.50;;;;;;5013466;28;20034;-73
2023/07/01 05:03:01;;;;;;;7.03;4.07;;;14.10;88.80;;;;;;5015389;28;20468;-73
2023/07/01 05:05:26;;;;;;;8.32;4.72;;;14.10;86.50;;;;;;5013842;28;20363;-73
2023/07/01 05:07:52;;;;;;;7.32;4.25;;;14.10;85.90;;;;;;5018997;28;20033;-73
2023/07/01 05:10:17;;;;;;;12.95;5.20;;;14.00;86.10;;;;;;5018117;28;20390;-73
2023/07/01 05:12:43;;;;;;;6.43;4.25;;;14.00;84.20;;;;;;5000100;28;20033;-74
2023/07/01 05:15:09;;;;;;;6.07;3.92;;;14.00;89.00;;;;;;5016457;28;20018;-73
2023/07/01 05:17:34;;;;;;;9.15;4.65;;;14.10;90.10;;;;;;5018162;28;20045;-73
2023/07/01 05:20:00;;;;;;;10.32;4.20;;;14.20;90.00;;;;;;5018694;28;20042;-74
2023/07/01 05:22:25;;;;;;;5.30;3.65;;;14.30;90.50;;;;;;5025236;28;20052;-73
2023/07/01 05:24:51;;;;;;;9.50;3.90;;;14.40;93.40;;;;;;4999983;28;20026;-74
2023/07/01 05:27:17;;;;;;;8.25;4.13;;;14.50;93.70;;;;;;5016893;28;20262;-74
2023/07/01 05:29:42;;;;;;;6.60;3.95;;;14.60;94.70;;;;;;5016930;28;20068;-73
2023/07/01 05:32:08;;;;;;;8.77;4.03;;;14.80;95.70;;;;;;5018703;28;20092;-73
2023/07/01 05:34:34;;;;;;;10.02;3.67;;;14.90;98.00;;;;;;5017237;28;20071;-73
2023/07/01 05:37:03;;;;;;;7.80;4.13;;;15.10;98.00;;;;;;5014670;28;20037;-74
2023/07/01 05:39:30;;;;;;;7.45;4.00;;;15.30;98.00;;;;;;5016448;28;20112;-74
2023/07/01 05:41:56;;;;;;;6.30;3.90;;;15.40;98.00;;;;;;4998365;28;20068;-73
2023/07/01 05:44:21;;;;;;;8.60;4.00;;;15.50;98.00;;;;;;5017208;28;20053;-74
2023/07/01 05:46:47;;;;;;;7.97;3.80;;;15.60;98.00;;;;;;5018245;28;20042;-73
2023/07/01 05:49:12;;;;;;;8.50;3.92;;;15.60;98.00;;;;;;5015828;28;20025;-73
2023/07/01 05:51:38;;;;;;;7.55;4.13;;;15.70;98.00;;;;;;5014718;28;20443;-74
2023/07/01 05:54:04;;;;;;;7.07;3.90;;;15.70;98.00;;;;;;5014644;28;20025;-74
2023/07/01 05:56:30;;;;;;;7.95;4.20;;;15.70;98.00;;;;;;5012970;28;20029;-74
2023/07/01 05:58:55;;;;;;;8.57;4.38;;;15.80;98.00;;;;;;5014131;28;20033;-74
2023/07/01 06:01:21;;;;;;;7.55;4.00;;;15.80;98.00;;;;;;4998993;28;20030;-73
2023/07/01 06:03:47;;;;;;;12.13;4.22;;;15.80;98.00;;;;;;5017815;28;20026;-73
2023/07/01 06:06:12;;;;;;;8.27;3.80;;;15.80;98.00;;;;;;5015460;28;20036;-73
2023/07/01 06:08:38;;;;;;;10.75;4.40;;;15.80;98.00;;;;;;5012664;28;20156;-74
2023/07/01 06:11:03;;;;;;;6.90;4.00;;;15.80;98.00;;;;;;5017602;28;20339;-73
2023/07/01 06:13:29;;;;;;;7.78;4.32;;;15.90;98.00;;;;;;5016431;28;20101;-73
2023/07/01 06:15:54;;;;;;;10.32;3.80;;;15.90;98.00;;;;;;5018173;28;20469;-73
2023/07/01 06:18:20;;;;;;;7.60;3.78;;;16.00;98.00;;;;;;5017253;28;20029;-73
2023/07/01 06:20:45;;;;;;;7.30;3.35;;;16.10;98.00;;;;;;5013244;28;20033;-73
2023/07/01 06:23:11;;;;;;;7.97;3.75;;;16.10;98.00;;;;;;5014348;28;20030;-73
2023/07/01 06:25:37;;;;;;;6.57;3.45;;;16.20;98.00;;;;;;5017663;28;20034;-73
2023/07/01 06:28:02;;;;;;;9.02;3.30;;;16.30;98.00;;;;;;5014231;28;20022;-74
2023/07/01 06:30:28;;;;;;;7.18;2.97;;;16.40;98.00;;;;;;5014828;28;20121;-73
2023/07/01 06:32:53;;;;;;;10.18;3.53;;;16.40;96.20;;;;;;5016427;28;20030;-74
2023/07/01 06:35:19;;;;;;;9.43;3.50;;;16.50;97.10;;;;;;4996283;28;20077;-73
2023/07/01 06:37:44;;;;;;;5.78;3.60;;;16.50;96.80;;;;;;5015204;28;20042;-74
2023/07/01 06:40:12;;;;;;;8.55;3.17;;;16.50;96.50;;;;;;5013580;28;20033;-73
2023/07/01 06:42:38;;;;;;;6.25;2.90;;;16.60;96.40;;;;;;5018749;28;20486;-74
2023/07/01 06:45:04;;;;;;;9.57;3.45;;;16.60;96.30;;;;;;5013377;28;20108;-73
2023/07/01 06:47:30;;;;;;;6.90;3.83;;;16.80;96.00;;;;;;5014788;28;20112;-74
2023/07/01 06:49:55;;;;;;;6.32;3.00;;;16.80;94.90;;;;;;5016360;28;20379;-74
2023/07/01 06:52:21;;;;;;;5.97;3.20;;;16.90;94.90;;;;;;5014734;28;20121;-74
2023/07/01 06:54:46;;;;;;;7.45;3.20;;;17.10;94.70;;;;;;5016767;28;20029;-75
2023/07/01 06:57:12;;;;;;;6.05;3.05;;;17.20;93.10;;;;;;5017309;28;20030;-73
2023/07/01 06:59:38;;;;;;;6.22;3.15;;;17.20;92.80;;;;;;5015514;28;20034;-73
2023/07/01 07:02:04;;;;;;;7.90;3.20;;;17.30;92.90;;;;;;5015177;28;20026;-74
2023/07/01 07:04:29;;;;;;;10.00;3.22;;;17.40;93.30;;;;;;5017581;28;20056;-73
2023/07/01 07:06:55;;;;;;;11.18;2.95;;;17.50;92.00;;;;;;5017095;28;20036;-73
2023/07/01 07:09:23;;;;;;;6.90;3.03;;;17.50;91.30;;;;;;5019621;28;20018;-73
2023/07/01 07:11:51;;;;;;;10.15;2.88;;;17.60;91.00;;;;;;5013367;28;20034;-74
2023/07/01 07:14:21;;;;;;;6.45;2.83;;;17.70;90.80;;;;;;5018941;28;20025;-74
2023/07/01 07:16:46;;;;;;;7.00;3.15;;;17.80;90.60;;;;;;5013079;28;20033;-73
2023/07/01 07:19:15;;;;;;;7.28;2.78;;;17.80;90.50;;;;;;5016638;28;20022;-73
2023/07/01 07:21:41;;;;;;;5.47;2.90;;;17.80;90.80;;;;;;5017671;28;20030;-74
2023/07/01 07:24:06;;;;;;;7.18;2.80;;;17.90;90.40;;;;;;5011870;28;20025;-75
2023/07/01 07:26:33;;;;;;;8.90;3.15;;;18.20;89.50;;;;;;4997856;28;20022;-75
2023/07/01 07:28:59;;;;;;;66.47;7.90;;;18.60;88.40;;;;;;5015004;28;20018;-75
2023/07/01 07:31:24;;;;;;;79.28;10.13;;;19.30;86.60;;;;;;5016877;28;20124;-77
2023/07/01 07:33:50;;;;;;;8.00;3.15;;;20.00;83.90;;;;;;5015351;28;20084;-77
2023/07/01 07:36:15;;;;;;;7.65;2.60;;;20.30;82.70;;;;;;5014599;28;20022;-76
2023/07/01 07:38:41;;;;;;;7.38;2.60;;;20.50;82.90;;;;;;5014228;28;20113;-76
2023/07/01 07:41:06;;;;;;;6.63;2.83;;;20.50;81.50;;;;;;5011153;28;20050;-76
2023/07/01 07:43:32;;;;;;;6.90;2.50;;;20.60;81.10;;;;;;5013009;28;20030;-75
2023/07/01 07:45:57;;;;;;;6.22;2.70;;;20.80;80.60;;;;;;5011235;28;20030;-76
2023/07/01 07:48:23;;;;;;;5.82;2.50;;;21.20;79.90;;;;;;5007678;28;20031;-76
2023/07/01 07:50:49;;;;;;;7.57;3.10;;;21.60;79.10;;;;;;5010631;28;20033;-76
2023/07/01 07:53:15;;;;;;;8.60;2.80;;;21.40;79.00;;;;;;5013950;28;20041;-76
2023/07/01 07:55:42;;;;;;;7.10;2.53;;;21.10;79.60;;;;;;5021151;28;20030;-76
2023/07/01 07:58:08;;;;;;;6.53;2.92;;;21.00;78.40;;;;;;5014876;28;20112;-76
2023/07/01 08:00:33;;;;;;;6.15;2.70;;;21.30;79.20;;;;;;5012772;28;20105;-76
2023/07/01 08:02:59;;;;;;;10.32;2.90;;;21.70;78.50;;;;;;5012827;28;20419;-76
2023/07/01 08:05:26;;;;;;;6.35;2.83;;;21.40;79.10;;;;;;5012221;28;20026;-76
2023/07/01 08:07:52;;;;;;;5.35;2.70;;;21.40;79.30;;;;;;5012218;28;20088;-76
2023/07/01 08:10:18;;;;;;;8.25;2.40;;;22.20;77.90;;;;;;5011911;28;20426;-76
2023/07/01 08:12:43;;;;;;;6.00;2.90;;;22.70;75.30;;;;;;5010455;28;20088;-76
2023/07/01 08:15:09;;;;;;;7.10;2.60;;;22.00;77.00;;;;;;5012972;28;20072;-76
2023/07/01 08:17:35;;;;;;;7.80;3.20;;;21.10;79.80;;;;;;5009357;28;20108;-75
2023/07/01 08:20:01;;;;;;;6.75;2.60;;;20.30;81.00;;;;;;5014842;28;20478;-74
2023/07/01 08:22:27;;;;;;;5.47;2.80;;;20.00;82.60;;;;;;5008063;28;20061;-75
2023/07/01 08:24:52;;;;;;;9.15;2.80;;;20.90;81.70;;;;;;5011452;28;20025;-74
2023/07/01 08:27:18;;;;;;;7.95;3.38;;;21.90;79.40;;;;;;5014564;28;20101;-75
2023/07/01 08:29:43;;;;;;;7.38;3.35;;;22.60;77.70;;;;;;5014575;28;20489;-74
2023/07/01 08:32:10;;;;;;;6.68;3.03;;;23.00;75.00;;;;;;5014267;28;20116;-74
2023/07/01 08:34:36;;;;;;;6.13;2.80;;;22.50;75.30;;;;;;5011895;28;20105;-74
2023/07/01 08:37:02;;;;;;;8.07;3.08;;;22.50;76.20;;;;;;5009145;28;20113;-74
2023/07/01 08:39:27;;;;;;;6.70;3.08;;;22.70;75.90;;;;;;4996095;28;20103;-74
2023/07/01 08:41:59;;;;;;;5.07;3.13;;;21.90;76.30;;;;;;5012342;28;20060;-74
2023/07/01 08:44:25;;;;;;;6.13;3.03;;;21.30;78.70;;;;;;5013327;28;20419;-74
2023/07/01 08:46:55;;;;;;;7.03;3.13;;;20.80;79.50;;;;;;5007536;28;20038;-74
2023/07/01 08:49:24;;;;;;;10.45;2.80;;;20.30;80.70;;;;;;5014100;28;20469;-74
2023/07/01 08:52:03;;;;;;;9.60;3.53;;;20.70;80.50;;;;;;5011369;28;20034;-73
2023/07/01 08:54:36;;;;;;;6.80;2.92;;;21.60;78.60;;;;;;5012224;28;20026;-73
2023/07/01 08:57:03;;;;;;;6.40;3.00;;;22.60;74.80;;;;;;5004366;28;20030;-74
2023/07/01 08:59:29;;;;;;;9.27;2.95;;;23.10;72.30;;;;;;5014771;28;20038;-73
2023/07/01 09:01:59;;;;;;;7.80;2.70;;;23.30;70.40;;;;;;5009943;28;20092;-72
2023/07/01 09:04:26;;;;;;;6.20;2.53;;;22.70;71.00;;;;;;5015662;28;20021;-73
2023/07/01 09:06:54;;;;;;;5.68;2.75;;;22.50;71.90;;;;;;5014547;28;20022;-73
2023/07/01 09:09:20;;;;;;;5.35;2.50;;;22.60;70.30;;;;;;5015693;28;20030;-73
2023/07/01 09:11:47;;;;;;;6.15;2.65;;;22.70;71.20;;;;;;5010963;28;20080;-74
2023/07/01 09:14:13;;;;;;;8.65;2.80;;;23.20;71.20;;;;;;5003373;28;20022;-72
2023/07/01 09:16:39;;;;;;;5.95;2.90;;;23.70;69.10;;;;;;5011488;28;20045;-72
2023/07/01 09:19:10;;;;;;;8.40;2.78;;;23.00;70.40;;;;;;5013795;28;20315;-72
2023/07/01 09:21:37;;;;;;;8.00;2.45;;;23.30;70.90;;;;;;5009085;28;20113;-74
2023/07/01 09:24:06;;;;;;;5.85;2.55;;;24.30;68.70;;;;;;5015010;28;20422;-73
2023/07/01 09:26:32;;;;;;;5.43;2.65;;;24.20;67.40;;;;;;5010259;28;20080;-72
2023/07/01 09:28:59;;;;;;;6.50;2.40;;;23.80;67.10;;;;;;4996036;28;20030;-72
2023/07/01 09:31:26;;;;;;;5.03;2.40;;;23.30;68.20;;;;;;4992409;28;20079;-73
2023/07/01 09:34:00;;;;;;;9.00;2.72;;;23.20;69.30;;;;;;5012259;28;20037;-73
2023/07/01 09:36:27;;;;;;;7.15;2.40;;;23.10;69.70;;;;;;5013559;28;20038;-73
2023/07/01 09:38:52;;;;;;;5.47;2.38;;;23.40;68.40;;;;;;5010396;28;20030;-73
2023/07/01 09:41:25;;;;;;;7.47;2.88;;;23.60;66.40;;;;;;5007147;28;20165;-73
2023/07/01 09:43:51;;;;;;;4.97;2.22;;;23.40;67.90;;;;;;5009143;28;20034;-73
2023/07/01 09:46:17;;;;;;;5.22;2.28;;;24.10;66.40;;;;;;5012359;28;20026;-73
2023/07/01 09:49:09;;;;;;;6.28;2.17;;;24.90;65.40;;;;;;5013946;28;20045;-73
2023/07/01 09:51:49;;;;;;;7.00;2.20;;;25.00;65.60;;;;;;5005718;28;20037;-72
2023/07/01 09:54:25;;;;;;;6.03;2.15;;;23.80;65.40;;;;;;5012739;28;20076;-73
2023/07/01 09:56:53;;;;;;;5.28;2.42;;;23.10;68.20;;;;;;5020955;28;20026;-73
2023/07/01 09:59:20;;;;;;;7.53;2.20;;;23.10;67.60;;;;;;5022403;28;20067;-73
2023/07/01 10:01:47;;;;;;;5.90;2.42;;;23.40;68.40;;;;;;5028110;28;20029;-74
2023/07/01 10:04:12;;;;;;;5.85;2.40;;;24.50;65.30;;;;;;5021989;28;20044;-73
2023/07/01 10:06:42;;;;;;;7.15;2.33;;;24.80;64.50;;;;;;5015421;28;20443;-74
2023/07/01 10:09:10;;;;;;;6.82;2.47;;;24.40;64.40;;;;;;5030728;28;20021;-73
2023/07/01 10:11:37;;;;;;;5.75;2.30;;;24.70;64.50;;;;;;5035750;28;20029;-73
2023/07/01 10:14:04;;;;;;;6.13;2.08;;;25.60;62.30;;;;;;5018686;28;20362;-73
2023/07/01 10:16:30;;;;;;;6.28;2.22;;;24.90;63.20;;;;;;5002098;28;20026;-73
2023/07/01 10:18:56;;;;;;;7.72;2.40;;;24.20;63.10;;;;;;5027993;28;20418;-73
2023/07/01 10:21:24;;;;;;;13.50;2.45;;;24.00;64.50;;;;;;5037006;28;20116;-73
2023/07/01 10:23:51;;;;;;;5.68;2.13;;;24.00;65.40;;;;;;5019393;28;20069;-73
2023/07/01 10:26:36;;;;;;;5.78;2.30;;;24.20;64.80;;;;;;5027019;28;20076;-72
2023/07/01 10:29:30;;;;;;;8.40;2.40;;;24.60;63.20;;;;;;5017886;28;20018;-73
2023/07/01 10:32:11;;;;;;;7.20;2.40;;;24.80;64.20;;;;;;5019011;28;20025;-73
2023/07/01 10:34:55;;;;;;;6.75;2.72;;;25.40;61.00;;;;;;5015943;28;20034;-73
2023/07/01 10:37:22;;;;;;;5.47;2.47;;;24.90;61.90;;;;;;5015428;28;20036;-73
2023/07/01 10:39:48;;;;;;;4.63;2.13;;;25.00;61.50;;;;;;5017805;28;20053;-73
2023/07/01 10:42:34;;;;;;;4.82;2.22;;;24.70;62.70;;;;;;5016282;28;20091;-73
2023/07/01 10:45:12;;;;;;;6.93;2.42;;;24.70;62.40;;;;;;4984436;28;21847;-73
2023/07/01 10:47:50;;;;;;;5.50;2.28;;;24.30;63.00;;;;;;5017166;28;20014;-73
2023/07/01 10:50:17;;;;;;;5.28;2.28;;;24.20;64.30;;;;;;5016846;28;20036;-73
2023/07/01 10:53:00;;;;;;;4.70;2.05;;;24.30;63.60;;;;;;5016741;28;20029;-73
2023/07/01 10:55:46;;;;;;;5.35;2.70;;;23.90;63.60;;;;;;5015409;28;20052;-72
2023/07/01 10:58:18;;;;;;;7.00;2.83;;;23.80;64.50;;;;;;5015999;28;20329;-73
2023/07/01 11:00:45;;;;;;;5.03;2.60;;;24.40;62.00;;;;;;5016598;28;20049;-73
2023/07/01 11:03:39;;;;;;;11.40;3.10;;;24.00;63.20;;;;;;5010701;28;20369;-73
2023/07/01 11:06:12;;;;;;;5.85;2.80;;;24.00;63.30;;;;;;4984433;28;20292;-73
2023/07/01 11:08:51;;;;;;;8.37;2.40;;;24.10;62.10;;;;;;5017146;28;20033;-72
2023/07/01 11:11:20;;;;;;;6.97;2.83;;;23.70;63.10;;;;;;5017786;28;20418;-73
2023/07/01 11:14:06;;;;;;;5.22;2.30;;;24.70;61.00;;;;;;5014940;28;20029;-72
2023/07/01 11:16:33;;;;;;;6.10;2.72;;;25.10;60.20;;;;;;5016587;28;20026;-73
2023/07/01 11:19:03;;;;;;;5.43;2.38;;;26.00;59.90;;;;;;5016490;28;20434;-72
2023/07/01 11:21:29;;;;;;;5.63;2.70;;;25.60;58.80;;;;;;5012847;28;20037;-73
2023/07/01 11:24:03;;;;;;;4.85;2.60;;;24.60;60.80;;;;;;5017092;28;20430;-73
2023/07/01 11:26:33;;;;;;;9.32;2.35;;;24.50;61.70;;;;;;5015951;28;20076;-73
2023/07/01 11:28:59;;;;;;;5.78;2.90;;;24.60;62.30;;;;;;5017197;28;20105;-72
2023/07/01 11:31:32;;;;;;;5.35;2.65;;;24.10;61.60;;;;;;5015059;28;20319;-72
2023/07/01 11:33:58;;;;;;;8.15;2.58;;;24.00;60.70;;;;;;4995345;28;20061;-73
2023/07/01 11:36:42;;;;;;;7.68;3.10;;;24.30;60.70;;;;;;5015421;28;20104;-72
2023/07/01 11:39:07;;;;;;;;;;;24.70;60.80;;;;;;5018838;28;20100;-72
2023/07/01 11:41:35;;;;;;;6.00;3.08;;;24.90;60.50;;;;;;5017403;28;20012;-73
2023/07/01 11:44:01;;;;;;;5.72;3.00;;;24.90;59.40;;;;;;5017803;28;20041;-72
2023/07/01 11:46:37;;;;;;;6.85;3.08;;;25.20;59.90;;;;;;5016036;28;20101;-73
2023/07/01 11:49:21;;;;;;;11.43;2.85;;;26.10;59.20;;;;;;5017655;28;20117;-72
2023/07/01 11:51:49;;;;;;;6.20;2.90;;;26.20;56.30;;;;;;5007551;28;20419;-73
2023/07/01 11:54:19;;;;;;;7.97;3.10;;;25.40;58.10;;;;;;4998882;28;20121;-72
2023/07/01 11:56:46;;;;;;;7.22;3.50;;;25.30;58.90;;;;;;5015743;28;20419;-72
2023/07/01 11:59:29;;;;;;;7.45;3.35;;;25.20;58.10;;;;;;5014986;28;20053;-72
2023/07/01 12:01:54;;;;;;;6.63;2.45;;;24.70;59.20;;;;;;5015428;28;20027;-71
2023/07/01 12:04:20;;;;;;;12.75;3.05;;;24.50;60.60;;;;;;5017420;28;20029;-72
2023/07/01 12:06:46;;;;;;;6.35;3.00;;;24.60;61.00;;;;;;5013621;28;20044;-72
2023/07/01 12:09:29;;;;;;;6.13;2.75;;;24.60;60.60;;;;;;5015717;28;20423;-72
2023/07/01 12:11:55;;;;;;;6.85;2.40;;;24.20;62.40;;;;;;5011096;28;20572;-72
2023/07/01 12:14:22;;;;;;;6.30;2.42;;;24.20;63.50;;;;;;5014954;28;20160;-72
2023/07/01 12:16:52;;;;;;;5.43;2.70;;;24.80;64.00;;;;;;5016470;28;20018;-72
2023/07/01 12:19:22;;;;;;;8.48;2.72;;;24.60;62.30;;;;;;5013036;28;20022;-72
2023/07/01 12:21:49;;;;;;;5.00;2.40;;;24.50;62.10;;;;;;5015162;28;20097;-72
2023/07/01 12:24:32;;;;;;;11.85;2.60;;;24.30;64.00;;;;;;4997095;28;20022;-71
2023/07/01 12:27:01;;;;;;;5.78;2.45;;;24.90;63.40;;;;;;5015512;28;20100;-71
2023/07/01 12:29:28;;;;;;;7.03;2.60;;;25.00;62.80;;;;;;5016520;28;20318;-71
2023/07/01 12:31:54;;;;;;;6.40;2.60;;;24.70;63.60;;;;;;5022834;28;20033;-72
2023/07/01 12:34:21;;;;;;;5.28;2.38;;;24.30;63.80;;;;;;5027578;28;20026;-72
2023/07/01 12:36:47;;;;;;;6.75;2.35;;;23.80;65.30;;;;;;5028100;28;20097;-72
2023/07/01 12:39:19;;;;;;;5.45;2.22;;;23.70;66.10;;;;;;5035925;28;20355;-74
2023/07/01 12:41:51;;;;;;;4.43;1.80;;;23.70;65.90;;;;;;5034054;28;20083;-73
2023/07/01 12:44:16;;;;;;;18.60;3.03;;;23.60;67.20;;;;;;5014336;28;20103;-74
2023/07/01 12:46:45;;;;;;;7.43;2.25;;;23.40;68.00;;;;;;5015859;28;20029;-73
2023/07/01 12:49:12;;;;;;;5.93;2.00;;;23.20;68.00;;;;;;5016021;28;20022;-73